首页
METAR-TAF:

METAR-TAF

机场 :

倫敦希斯路機場, 英格兰

纬度: 51-29N, 经度: 000-27W, 海拔: 24米

当前天气观测

该预报发布于43分钟前的08:50 UTC
风速13节,风向北转东北,有时为26节阵风,在东转东北之间变化
温度 6°C
湿度 45%
气压 1037 hPa
能见度10公里或以上

METAR: EGLL 290850Z AUTO 03013G26KT 350V060 9999 NCD 06/M05 Q1037 NOSIG

时间: 10:33 (09:33 UTC)

预报

该预报发布于4小时和38分钟前的04:55 UTC
预报有效从29日的 06点(UTC)到 30日的 12点(UTC)
风速12节,风向东北
能见度10公里或以上
散云层高于3000英尺
几率 30% :
短暂存在
从 29日的 06点(UTC)到 29日的 09点(UTC)
风速18节,风向北转东北,有时为28节阵风
能見度: 8000
小阵雨
短暂存在
从 29日的 09点(UTC)到 29日的 20点(UTC)
风速20节,风向北转东北,有时为32节阵风
几率 30% :
短暂存在
从 29日的 09点(UTC)到 29日的 17点(UTC)
能見度: 6000
阵雨
成为
从 30日的 02点(UTC)到 30日的 06点(UTC)
风速10节,风向北转西北
短暂存在
从 30日的 08点(UTC)到 30日的 12点(UTC)
能見度: 6000
多云层高于1400英尺
阵雨

TAF: EGLL 290455Z 2906/3012 04012KT 9999 SCT030 PROB30 TEMPO 2906/2909 03018G28KT 8000 -SHRA TEMPO 2909/2920 03020G32KT PROB30 TEMPO 2909/2917 6000 SHRA BECMG 3002/3006 34010KT TEMPO 3008/3012 6000 SHRA BKN014

超过4000个机场的气象观测和天气预报(METAR&TAF报告)。

可查询的气象台以黄色和红色小点在地图上表示。

将鼠标移到小点上方,可查看气象台名称。

然后点击查看天气观测和预报。

如需切换地图:点击带黑十字的绿色按钮放大地图;点击带横线的绿色按钮缩小地图;或者点击绿色箭头查看邻近地区的地图。


METAR-TAF: